createdAt,value
2022-07-31T00:01:03.083Z,100368.50
2022-07-31T00:03:31.551Z,100362.28
2022-07-31T00:05:59.910Z,100367.59
2022-07-31T00:08:28.332Z,100372.97
2022-07-31T00:10:56.686Z,100375.69
2022-07-31T00:13:58.012Z,100366.84
2022-07-31T00:16:14.814Z,100368.63
2022-07-31T00:18:45.679Z,100367.75
2022-07-31T00:21:14.280Z,100363.34
2022-07-31T00:23:42.649Z,100362.47
2022-07-31T00:26:11.054Z,100359.84
2022-07-31T00:28:40.817Z,100361.66
2022-07-31T00:31:09.230Z,100353.66
2022-07-31T00:33:37.547Z,100359.91
2022-07-31T00:36:06.899Z,100359.91
2022-07-31T00:38:35.374Z,100352.84
2022-07-31T00:41:04.010Z,100348.44
2022-07-31T00:43:32.623Z,100346.66
2022-07-31T00:46:02.351Z,100343.16
2022-07-31T00:48:31.125Z,100338.75
2022-07-31T00:51:00.413Z,100339.66
2022-07-31T00:53:28.802Z,100340.56
2022-07-31T00:55:57.999Z,100332.59
2022-07-31T00:58:26.697Z,100329.94
2022-07-31T01:00:55.279Z,100325.53
2022-07-31T01:03:25.095Z,100327.34
2022-07-31T01:05:53.541Z,100329.13
2022-07-31T01:08:21.958Z,100329.16
2022-07-31T01:10:57.073Z,100331.84
2022-07-31T01:13:32.815Z,100331.88
2022-07-31T01:16:04.474Z,100332.84
2022-07-31T01:18:37.060Z,100336.41
2022-07-31T01:21:12.499Z,100327.56
2022-07-31T01:24:11.725Z,100344.44
2022-07-31T01:27:04.084Z,100334.75
2022-07-31T01:29:38.449Z,100331.22
2022-07-31T01:32:11.265Z,100333.00
2022-07-31T01:34:45.154Z,100326.00
2022-07-31T01:37:20.615Z,100327.75
2022-07-31T01:39:53.858Z,100326.91
2022-07-31T01:42:25.823Z,100326.91
2022-07-31T01:45:01.071Z,100324.28
2022-07-31T01:47:32.686Z,100324.34
2022-07-31T01:50:04.747Z,100319.94
2022-07-31T01:52:35.354Z,100324.38
2022-07-31T01:55:05.511Z,100324.41
2022-07-31T01:57:35.845Z,100319.13
2022-07-31T02:00:33.370Z,100320.94
2022-07-31T02:03:01.542Z,100324.53
2022-07-31T02:05:41.473Z,100324.56
2022-07-31T02:08:12.051Z,100316.63
2022-07-31T02:10:45.472Z,100321.94
2022-07-31T02:13:14.882Z,100325.50
2022-07-31T02:15:46.035Z,100306.94
2022-07-31T02:18:19.010Z,100310.47
2022-07-31T02:21:15.410Z,100305.16
2022-07-31T02:23:44.000Z,100305.16
2022-07-31T02:26:16.604Z,100304.28
2022-07-31T02:28:47.745Z,100308.69
2022-07-31T02:31:19.561Z,100310.47
2022-07-31T02:33:50.413Z,100306.91
2022-07-31T02:36:22.216Z,100304.22
2022-07-31T02:38:53.529Z,100293.59
2022-07-31T02:41:22.758Z,100298.03
2022-07-31T02:43:51.901Z,100290.94
2022-07-31T02:46:24.101Z,100293.59
2022-07-31T02:48:52.959Z,100287.41
2022-07-31T02:51:24.437Z,100286.50
2022-07-31T02:53:53.765Z,100290.03
2022-07-31T02:56:25.733Z,100287.38
2022-07-31T02:58:55.710Z,100283.81
2022-07-31T03:01:28.801Z,100285.59
2022-07-31T03:03:58.053Z,100289.13
2022-07-31T03:06:29.197Z,100279.38
2022-07-31T03:08:57.558Z,100282.91
2022-07-31T03:11:27.222Z,100279.31
2022-07-31T03:13:58.258Z,100273.13
2022-07-31T03:16:30.851Z,100274.88
2022-07-31T03:19:02.975Z,100282.84
2022-07-31T03:21:32.902Z,100284.59
2022-07-31T03:24:03.121Z,100287.25
2022-07-31T03:26:32.329Z,100283.69
2022-07-31T03:29:02.322Z,100289.88
2022-07-31T03:31:32.329Z,100282.78
2022-07-31T03:34:00.693Z,100292.53
2022-07-31T03:36:30.584Z,100295.19
2022-07-31T03:38:59.654Z,100289.84
2022-07-31T03:41:39.946Z,100296.03
2022-07-31T03:44:09.978Z,100289.81
2022-07-31T03:46:40.211Z,100293.38
2022-07-31T03:49:09.453Z,100287.16
2022-07-31T03:51:38.118Z,100285.34
2022-07-31T03:54:07.098Z,100288.00
2022-07-31T03:56:58.797Z,100286.28
2022-07-31T03:59:28.384Z,100280.03
2022-07-31T04:02:05.443Z,100286.28
2022-07-31T04:04:44.501Z,100284.47
2022-07-31T04:07:12.918Z,100300.44
2022-07-31T04:09:42.639Z,100292.47
2022-07-31T04:12:12.378Z,100292.47
2022-07-31T04:14:40.802Z,100294.25
2022-07-31T04:17:10.634Z,100293.38
2022-07-31T04:19:39.312Z,100300.44
2022-07-31T04:22:09.005Z,100300.44
2022-07-31T04:24:38.124Z,100304.88
2022-07-31T04:27:12.243Z,100296.03
2022-07-31T04:29:44.225Z,100296.91
2022-07-31T04:32:13.988Z,100296.91
2022-07-31T04:34:51.419Z,100296.03
2022-07-31T04:37:19.855Z,100294.25
2022-07-31T04:39:48.363Z,100304.88
2022-07-31T04:42:16.781Z,100309.31
2022-07-31T04:44:45.675Z,100306.66
2022-07-31T04:47:15.457Z,100300.44
2022-07-31T04:49:47.374Z,100302.25
2022-07-31T04:52:18.237Z,100297.81
2022-07-31T04:54:48.767Z,100296.91
2022-07-31T04:57:21.378Z,100308.41
2022-07-31T04:59:58.078Z,100296.03
2022-07-31T05:02:29.942Z,100300.47
2022-07-31T05:04:58.879Z,100303.13
2022-07-31T05:07:36.593Z,100303.13
2022-07-31T05:10:31.430Z,100301.34
2022-07-31T05:12:59.903Z,100301.34
2022-07-31T05:15:28.454Z,100303.09
2022-07-31T05:17:59.618Z,100303.09
2022-07-31T05:20:46.499Z,100304.91
2022-07-31T05:23:31.469Z,100300.44
2022-07-31T05:26:26.993Z,100295.13
2022-07-31T05:28:58.549Z,100296.00
2022-07-31T05:31:28.441Z,100295.13
2022-07-31T05:34:00.112Z,100301.34
2022-07-31T05:36:28.511Z,100302.22
2022-07-31T05:38:56.894Z,100303.09
2022-07-31T05:41:40.184Z,100301.31
2022-07-31T05:44:08.496Z,100305.72
2022-07-31T05:46:43.481Z,100308.38
2022-07-31T05:49:13.318Z,100306.59
2022-07-31T05:51:44.185Z,100296.81
2022-07-31T05:54:12.610Z,100300.31
2022-07-31T05:56:59.508Z,100301.19
2022-07-31T05:59:41.770Z,100304.72
2022-07-31T06:02:10.359Z,100301.16
2022-07-31T06:05:00.516Z,100301.19
2022-07-31T06:07:30.062Z,100302.94
2022-07-31T06:09:58.561Z,100304.72
2022-07-31T06:12:26.960Z,100301.13
2022-07-31T06:14:55.321Z,100298.44
2022-07-31T06:17:43.780Z,100293.97
2022-07-31T06:20:23.194Z,100299.25
2022-07-31T06:22:51.602Z,100294.81
2022-07-31T06:25:20.131Z,100300.09
2022-07-31T06:27:52.005Z,100296.50
2022-07-31T06:30:27.966Z,100288.47
2022-07-31T06:32:57.025Z,100288.44
2022-07-31T06:35:27.153Z,100282.19
2022-07-31T06:38:18.619Z,100278.59
2022-07-31T06:41:05.691Z,100287.41
2022-07-31T06:43:39.550Z,100292.75
2022-07-31T06:46:30.907Z,100291.88
2022-07-31T06:49:34.509Z,100295.34
2022-07-31T06:52:05.354Z,100298.94
2022-07-31T06:54:34.327Z,100291.81
2022-07-31T06:57:02.933Z,100291.78
2022-07-31T06:59:39.965Z,100297.09
2022-07-31T07:02:09.994Z,100298.78
2022-07-31T07:04:57.376Z,100294.31
2022-07-31T07:07:31.594Z,100293.41
2022-07-31T07:10:00.769Z,100290.69
2022-07-31T07:12:47.637Z,100289.78
2022-07-31T07:15:16.519Z,100286.22
2022-07-31T07:17:45.074Z,100292.44
2022-07-31T07:20:18.463Z,100293.28
2022-07-31T07:22:48.316Z,100281.75
2022-07-31T07:25:29.718Z,100279.09
2022-07-31T07:28:00.407Z,100285.25
2022-07-31T07:30:29.475Z,100283.50
2022-07-31T07:33:01.372Z,100280.84
2022-07-31T07:35:33.916Z,100284.44
2022-07-31T07:38:07.070Z,100272.03
2022-07-31T07:40:38.145Z,100289.81
2022-07-31T07:43:06.622Z,100278.34
2022-07-31T07:45:35.113Z,100279.28
2022-07-31T07:48:06.134Z,100280.19
2022-07-31T07:50:55.734Z,100274.88
2022-07-31T07:53:32.890Z,100278.44
2022-07-31T07:56:33.383Z,100270.47
2022-07-31T07:59:01.774Z,100264.22
2022-07-31T08:01:48.595Z,100256.19
2022-07-31T08:04:21.942Z,100258.81
2022-07-31T08:06:50.286Z,100258.75
2022-07-31T08:09:23.097Z,100261.41
2022-07-31T08:12:10.218Z,100259.59
2022-07-31T08:14:58.890Z,100266.66
2022-07-31T08:17:45.302Z,100254.28
2022-07-31T08:20:15.915Z,100250.69
2022-07-31T08:22:44.349Z,100264.00
2022-07-31T08:25:15.175Z,100254.22
2022-07-31T08:27:47.924Z,100257.75
2022-07-31T08:30:17.871Z,100255.91
2022-07-31T08:32:46.285Z,100255.91
2022-07-31T08:35:32.818Z,100264.75
2022-07-31T08:38:04.377Z,100259.44
2022-07-31T08:40:43.609Z,100263.81
2022-07-31T08:44:02.129Z,100273.56
2022-07-31T08:46:03.703Z,100270.81
2022-07-31T08:48:40.814Z,100275.22
2022-07-31T08:51:13.023Z,100263.59
2022-07-31T08:54:08.916Z,100272.44
2022-07-31T08:56:39.986Z,100267.97
2022-07-31T08:59:08.972Z,100269.69
2022-07-31T09:01:38.745Z,100267.91
2022-07-31T09:04:07.422Z,100271.44
2022-07-31T09:06:37.078Z,100267.91
2022-07-31T09:09:06.328Z,100256.34
2022-07-31T09:11:35.078Z,100259.03
2022-07-31T09:14:29.895Z,100258.13
2022-07-31T09:16:59.147Z,100248.34
2022-07-31T09:19:52.431Z,100250.06
2022-07-31T09:22:27.968Z,100247.22
2022-07-31T09:25:13.099Z,100252.41
2022-07-31T09:27:41.891Z,100251.41
2022-07-31T09:30:12.737Z,100258.38
2022-07-31T09:33:14.254Z,100258.19
2022-07-31T09:36:03.897Z,100247.44
2022-07-31T09:38:36.601Z,100253.53
2022-07-31T09:42:01.397Z,100249.78
2022-07-31T09:44:17.243Z,100257.63
2022-07-31T09:46:51.419Z,100252.16
2022-07-31T09:49:20.059Z,100256.47
2022-07-31T09:51:49.038Z,100254.59
2022-07-31T09:54:22.665Z,100258.00
2022-07-31T09:56:57.311Z,100263.28
2022-07-31T09:59:27.741Z,100254.38
2022-07-31T10:01:57.898Z,100262.34
2022-07-31T10:04:26.664Z,100265.88
2022-07-31T10:06:57.269Z,100251.59
2022-07-31T10:09:27.791Z,100254.25
2022-07-31T10:12:20.663Z,100249.78
2022-07-31T10:14:52.581Z,100254.22
2022-07-31T10:17:28.246Z,100251.56
2022-07-31T10:20:22.811Z,100248.81
2022-07-31T10:23:15.350Z,100244.25
2022-07-31T10:25:53.791Z,100240.63
2022-07-31T10:28:23.970Z,100235.22
2022-07-31T10:30:52.850Z,100236.88
2022-07-31T10:33:43.079Z,100229.72
2022-07-31T10:36:55.649Z,100224.22
2022-07-31T10:39:43.440Z,100225.84
2022-07-31T10:42:37.302Z,100225.69
2022-07-31T10:45:08.458Z,100223.75
2022-07-31T10:48:12.585Z,100224.44
2022-07-31T10:51:10.893Z,100207.41
2022-07-31T10:54:11.560Z,100215.34
2022-07-31T10:57:04.568Z,100219.78
2022-07-31T10:59:48.854Z,100223.38
2022-07-31T11:02:52.676Z,100218.78
2022-07-31T11:05:30.823Z,100215.94
2022-07-31T11:08:19.801Z,100210.47
2022-07-31T11:10:55.772Z,100210.38
2022-07-31T11:13:50.499Z,100219.16
2022-07-31T11:16:50.973Z,100218.16
2022-07-31T11:19:41.810Z,100212.78
2022-07-31T11:22:31.904Z,100221.69
2022-07-31T11:25:02.227Z,100213.69
2022-07-31T11:27:31.962Z,100220.81
2022-07-31T11:30:10.711Z,100216.31
2022-07-31T11:32:41.832Z,100213.53
2022-07-31T11:35:10.218Z,100210.75
2022-07-31T11:37:56.807Z,100205.31
2022-07-31T11:40:27.903Z,100211.44
2022-07-31T11:43:25.415Z,100200.69
2022-07-31T11:45:48.216Z,100203.31
2022-07-31T11:48:19.426Z,100206.84
2022-07-31T11:50:49.614Z,100210.34
2022-07-31T11:53:18.661Z,100208.50
2022-07-31T11:55:50.676Z,100211.13
2022-07-31T11:58:21.196Z,100202.22
2022-07-31T12:00:51.587Z,100201.19
2022-07-31T12:03:21.705Z,100190.34
2022-07-31T12:05:52.359Z,100185.75
2022-07-31T12:08:22.121Z,100178.53
2022-07-31T12:10:53.880Z,100171.25
2022-07-31T12:13:23.107Z,100175.56
2022-07-31T12:15:56.477Z,100176.25
2022-07-31T12:18:26.357Z,100179.63
2022-07-31T12:20:56.869Z,100174.03
2022-07-31T12:23:41.047Z,100174.63
2022-07-31T12:26:12.835Z,100170.72
2022-07-31T12:28:41.313Z,100174.78
2022-07-31T12:31:09.744Z,100165.47
2022-07-31T12:33:42.201Z,100165.16
2022-07-31T12:36:15.078Z,100166.75
2022-07-31T12:38:47.809Z,100163.16
2022-07-31T12:41:18.610Z,100164.81
2022-07-31T12:43:50.985Z,100164.75
2022-07-31T12:46:35.663Z,100155.97
2022-07-31T12:49:04.564Z,100152.44
2022-07-31T12:51:45.206Z,100156.97
2022-07-31T12:54:16.079Z,100148.94
2022-07-31T12:56:47.430Z,100160.63
2022-07-31T12:59:15.863Z,100144.69
2022-07-31T13:01:44.273Z,100148.44
2022-07-31T13:04:18.209Z,100150.31
2022-07-31T13:06:52.094Z,100143.22
2022-07-31T13:09:21.095Z,100143.25
2022-07-31T13:11:57.348Z,100137.97
2022-07-31T13:14:26.278Z,100141.53
2022-07-31T13:16:56.026Z,100134.47
2022-07-31T13:19:24.415Z,100131.88
2022-07-31T13:21:52.793Z,100125.63
2022-07-31T13:24:26.015Z,100123.84
2022-07-31T13:26:58.656Z,100124.75
2022-07-31T13:29:27.006Z,100120.31
2022-07-31T13:31:55.544Z,100120.31
2022-07-31T13:34:23.888Z,100123.09
2022-07-31T13:36:52.268Z,100115.13
2022-07-31T13:39:20.822Z,100118.66
2022-07-31T13:41:49.142Z,100123.09
2022-07-31T13:44:18.887Z,100117.75
2022-07-31T13:46:47.313Z,100121.16
2022-07-31T13:49:15.802Z,100118.31
2022-07-31T13:51:44.221Z,100111.81
2022-07-31T13:54:12.891Z,100107.19
2022-07-31T13:56:43.492Z,100109.78
2022-07-31T13:59:14.023Z,100108.78
2022-07-31T14:02:03.188Z,100109.56
2022-07-31T14:04:38.760Z,100105.84
2022-07-31T14:07:09.109Z,100106.53
2022-07-31T14:09:37.907Z,100110.72
2022-07-31T14:12:07.087Z,100102.34
2022-07-31T14:14:35.741Z,100099.34
2022-07-31T14:17:05.495Z,100100.88
2022-07-31T14:19:42.075Z,100093.66
2022-07-31T14:22:14.284Z,100090.97
2022-07-31T14:24:50.670Z,100092.75
2022-07-31T14:27:20.722Z,100090.28
2022-07-31T14:29:49.272Z,100079.63
2022-07-31T14:32:19.617Z,100085.78
2022-07-31T14:34:48.180Z,100079.19
2022-07-31T14:37:16.619Z,100074.44
2022-07-31T14:39:45.080Z,100082.16
2022-07-31T14:42:13.665Z,100074.69
2022-07-31T14:44:42.687Z,100084.34
2022-07-31T14:47:11.706Z,100075.19
2022-07-31T14:50:09.478Z,100069.53
2022-07-31T14:52:30.549Z,100074.31
2022-07-31T14:55:00.030Z,100068.59
2022-07-31T14:57:29.792Z,100076.34
2022-07-31T14:59:58.296Z,100060.91
2022-07-31T15:02:26.858Z,100057.31
2022-07-31T15:04:56.617Z,100057.41
2022-07-31T15:07:46.276Z,100046.75
2022-07-31T15:10:13.337Z,100051.22
2022-07-31T15:12:42.894Z,100043.19
2022-07-31T15:15:12.209Z,100050.38
2022-07-31T15:17:40.602Z,100042.38
2022-07-31T15:20:11.822Z,100050.66
2022-07-31T15:22:40.246Z,100052.63
2022-07-31T15:25:10.135Z,100044.75
2022-07-31T15:27:38.458Z,100045.78
2022-07-31T15:30:08.323Z,100046.03
2022-07-31T15:32:37.925Z,100038.19
2022-07-31T15:35:08.606Z,100054.56
2022-07-31T15:37:40.341Z,100047.66
2022-07-31T15:40:11.839Z,100051.38
2022-07-31T15:42:41.891Z,100046.00
2022-07-31T15:45:11.779Z,100050.22
2022-07-31T15:47:41.524Z,100046.06
2022-07-31T15:50:11.599Z,100047.47
2022-07-31T15:52:42.631Z,100032.81
2022-07-31T15:55:11.504Z,100032.38
2022-07-31T15:57:39.983Z,100034.78
2022-07-31T16:00:10.540Z,100030.28
2022-07-31T16:02:42.564Z,100029.28
2022-07-31T16:05:22.020Z,100027.50
2022-07-31T16:08:29.177Z,100025.59
2022-07-31T16:10:54.108Z,100027.28
2022-07-31T16:13:23.942Z,100022.06
2022-07-31T16:15:52.702Z,100015.03
2022-07-31T16:18:21.634Z,100020.53
2022-07-31T16:20:50.066Z,100013.63
2022-07-31T16:23:19.786Z,100008.66
2022-07-31T16:25:48.241Z,100004.50
2022-07-31T16:28:16.638Z,100009.19
2022-07-31T16:30:45.740Z,100003.22
2022-07-31T16:33:14.291Z,100002.50
2022-07-31T16:35:42.717Z,100014.44
2022-07-31T16:38:11.082Z,100018.09
2022-07-31T16:40:41.058Z,100003.00
2022-07-31T16:43:48.683Z,100015.59
2022-07-31T16:45:58.243Z,100003.22
2022-07-31T16:48:26.603Z,100000.56
2022-07-31T16:50:55.345Z,100000.69
2022-07-31T16:54:09.799Z,99991.09
2022-07-31T16:56:14.831Z,99987.66
2022-07-31T16:58:43.715Z,99991.34
2022-07-31T17:01:57.854Z,99992.34
2022-07-31T17:04:04.187Z,99992.50
2022-07-31T17:06:36.997Z,99989.94
2022-07-31T17:09:17.480Z,99990.94
2022-07-31T17:11:49.957Z,99989.28
2022-07-31T17:14:19.725Z,99990.31
2022-07-31T17:16:49.704Z,99994.97
2022-07-31T17:19:42.544Z,99993.34
2022-07-31T17:22:11.791Z,99994.38
2022-07-31T17:24:50.297Z,99995.44
2022-07-31T17:27:21.005Z,99983.94
2022-07-31T17:29:49.764Z,99985.75
2022-07-31T17:32:18.218Z,99992.97
2022-07-31T17:34:49.221Z,99998.38
2022-07-31T17:37:18.150Z,99991.31
2022-07-31T17:39:46.592Z,100000.34
2022-07-31T17:42:15.200Z,100003.09
2022-07-31T17:47:07.065Z,100004.13
2022-07-31T17:47:36.339Z,100013.19
2022-07-31T17:50:05.261Z,100013.38
2022-07-31T17:52:33.615Z,100019.94
2022-07-31T17:55:02.676Z,100031.09
2022-07-31T17:57:32.601Z,100035.06
2022-07-31T18:00:03.170Z,100045.41
2022-07-31T18:02:33.165Z,100048.56
2022-07-31T18:05:01.602Z,100056.94
2022-07-31T18:07:30.148Z,100068.00
2022-07-31T18:09:58.765Z,100059.34
2022-07-31T18:12:27.157Z,100067.63
2022-07-31T18:14:55.545Z,100058.97
2022-07-31T18:17:26.822Z,100069.78
2022-07-31T18:19:55.308Z,100067.22
2022-07-31T18:22:23.727Z,100052.25
2022-07-31T18:24:52.111Z,100067.47
2022-07-31T18:27:20.490Z,100075.63
2022-07-31T18:29:56.030Z,100069.47
2022-07-31T18:32:26.153Z,100073.13
2022-07-31T18:34:54.612Z,100071.47
2022-07-31T18:37:23.088Z,100066.22
2022-07-31T18:39:51.470Z,100069.88
2022-07-31T18:42:20.077Z,100075.31
2022-07-31T18:44:48.558Z,100077.25
2022-07-31T18:47:16.943Z,100088.00
2022-07-31T18:51:01.666Z,100097.03
2022-07-31T18:52:35.456Z,100090.88
2022-07-31T18:55:03.907Z,100104.34
2022-07-31T18:57:32.294Z,100103.56
2022-07-31T19:00:00.626Z,100109.16
2022-07-31T19:02:29.242Z,100111.97
2022-07-31T19:04:59.498Z,100107.84
2022-07-31T19:07:30.731Z,100115.38
2022-07-31T19:10:07.790Z,100114.84
2022-07-31T19:12:36.419Z,100116.94
2022-07-31T19:15:05.555Z,100116.25
2022-07-31T19:17:44.107Z,100116.41
2022-07-31T19:20:44.539Z,100108.63
2022-07-31T19:23:03.119Z,100114.19
2022-07-31T19:26:02.031Z,100110.75
2022-07-31T19:28:26.670Z,100107.38
2022-07-31T19:30:59.016Z,100115.47
2022-07-31T19:33:27.546Z,100111.13
2022-07-31T19:36:01.772Z,100112.06
2022-07-31T19:38:31.272Z,100108.56
2022-07-31T19:40:59.803Z,100117.50
2022-07-31T19:43:28.221Z,100116.63
2022-07-31T19:46:02.383Z,100124.63
2022-07-31T19:48:45.428Z,100127.28
2022-07-31T19:51:17.089Z,100128.22
2022-07-31T19:53:46.258Z,100129.09
2022-07-31T19:56:20.505Z,100134.44
2022-07-31T19:58:50.204Z,100141.56
2022-07-31T20:01:20.061Z,100140.69
2022-07-31T20:03:48.970Z,100151.34
2022-07-31T20:06:18.785Z,100143.41
2022-07-31T20:08:49.028Z,100153.22
2022-07-31T20:11:17.715Z,100154.16
2022-07-31T20:13:46.865Z,100154.22
2022-07-31T20:16:15.699Z,100151.63
2022-07-31T20:18:44.366Z,100157.84
2022-07-31T20:21:12.705Z,100158.75
2022-07-31T20:23:42.678Z,100166.81
2022-07-31T20:26:16.430Z,100163.28
2022-07-31T20:28:45.178Z,100167.78
2022-07-31T20:31:15.868Z,100165.13
2022-07-31T20:33:56.840Z,100170.47
2022-07-31T20:36:26.808Z,100166.94
2022-07-31T20:38:58.006Z,100169.59
2022-07-31T20:41:27.311Z,100166.94
2022-07-31T20:43:56.132Z,100169.59
2022-07-31T20:46:24.570Z,100161.63
2022-07-31T20:48:52.962Z,100163.41
2022-07-31T20:51:23.159Z,100165.19
2022-07-31T20:53:52.459Z,100164.31
2022-07-31T20:56:22.576Z,100171.41
2022-07-31T20:58:52.048Z,100175.84
2022-07-31T21:01:21.051Z,100171.44
2022-07-31T21:03:49.899Z,100171.44
2022-07-31T21:06:19.325Z,100171.44
2022-07-31T21:08:47.865Z,100175.91
2022-07-31T21:11:16.289Z,100181.22
2022-07-31T21:13:46.320Z,100183.00
2022-07-31T21:16:14.843Z,100180.38
2022-07-31T21:18:43.740Z,100182.19
2022-07-31T21:21:12.617Z,100176.00
2022-07-31T21:23:41.035Z,100184.88
2022-07-31T21:26:10.304Z,100181.41
2022-07-31T21:28:40.382Z,100180.53
2022-07-31T21:31:10.561Z,100185.88
2022-07-31T21:33:39.368Z,100184.13
2022-07-31T21:36:08.808Z,100191.25
2022-07-31T21:38:40.094Z,100189.50
2022-07-31T21:41:09.484Z,100189.56
2022-07-31T21:43:59.143Z,100191.31
2022-07-31T21:46:29.660Z,100185.16
2022-07-31T21:48:58.630Z,100190.50
2022-07-31T21:51:27.661Z,100179.91
2022-07-31T21:53:56.052Z,100187.91
2022-07-31T21:56:24.447Z,100189.69
2022-07-31T21:58:52.852Z,100187.91
2022-07-31T22:01:23.446Z,100193.28
2022-07-31T22:03:53.238Z,100192.41
2022-07-31T22:06:38.938Z,100191.53
2022-07-31T22:09:07.346Z,100193.28
2022-07-31T22:11:36.268Z,100195.13
2022-07-31T22:14:04.632Z,100194.25
2022-07-31T22:16:33.026Z,100194.25
2022-07-31T22:19:03.373Z,100194.28
2022-07-31T22:21:31.947Z,100198.75
2022-07-31T22:24:00.714Z,100190.78
2022-07-31T22:26:29.961Z,100197.84
2022-07-31T22:28:58.724Z,100199.66
2022-07-31T22:31:28.741Z,100199.66
2022-07-31T22:33:57.313Z,100204.09
2022-07-31T22:36:28.119Z,100197.03
2022-07-31T22:38:57.554Z,100199.69
2022-07-31T22:41:28.654Z,100203.28
2022-07-31T22:44:12.037Z,100196.16
2022-07-31T22:46:43.276Z,100195.28
2022-07-31T22:49:12.347Z,100197.97
2022-07-31T22:51:46.208Z,100196.22
2022-07-31T22:54:15.229Z,100201.59
2022-07-31T22:56:43.559Z,100214.03
2022-07-31T22:59:11.918Z,100216.72
2022-07-31T23:01:40.403Z,100203.50
2022-07-31T23:04:08.853Z,100210.66
2022-07-31T23:06:37.262Z,100211.63
2022-07-31T23:09:06.987Z,100208.97
2022-07-31T23:11:35.331Z,100209.91
2022-07-31T23:14:03.689Z,100209.97
2022-07-31T23:16:32.198Z,100216.22
2022-07-31T23:19:03.533Z,100219.81
2022-07-31T23:21:32.023Z,100221.63
2022-07-31T23:24:00.450Z,100230.53
2022-07-31T23:26:30.266Z,100220.81
2022-07-31T23:28:58.683Z,100223.50
2022-07-31T23:31:27.062Z,100220.88
2022-07-31T23:33:55.638Z,100218.25
2022-07-31T23:36:24.548Z,100214.72
2022-07-31T23:38:52.941Z,100220.06
2022-07-31T23:41:35.178Z,100216.53
2022-07-31T23:44:06.539Z,100218.31
2022-07-31T23:46:39.009Z,100216.56
2022-07-31T23:49:09.587Z,100216.59
2022-07-31T23:51:38.182Z,100213.94
2022-07-31T23:54:07.577Z,100209.50
2022-07-31T23:56:36.087Z,100217.47
2022-07-31T23:59:05.841Z,100213.06
